createdAt,value
2023-12-15T00:01:36.446Z,3.40
2023-12-15T00:04:04.822Z,3.50
2023-12-15T00:06:33.070Z,3.40
2023-12-15T00:09:01.500Z,3.50
2023-12-15T00:11:29.844Z,3.40
2023-12-15T00:13:59.638Z,3.40
2023-12-15T00:16:27.917Z,3.40
2023-12-15T00:18:56.242Z,3.40
2023-12-15T00:21:25.461Z,3.40
2023-12-15T00:23:53.656Z,3.40
2023-12-15T00:26:21.940Z,3.40
2023-12-15T00:28:50.265Z,3.40
2023-12-15T00:31:19.894Z,3.40
2023-12-15T00:33:48.321Z,3.40
2023-12-15T00:36:16.611Z,3.40
2023-12-15T00:38:44.891Z,3.40
2023-12-15T00:41:13.137Z,3.40
2023-12-15T00:43:41.322Z,3.40
2023-12-15T00:46:24.204Z,3.40
2023-12-15T00:49:30.683Z,3.40
2023-12-15T00:52:11.141Z,3.40
2023-12-15T00:54:44.559Z,3.40
2023-12-15T00:57:20.472Z,3.40
2023-12-15T00:59:53.563Z,3.40
2023-12-15T01:02:27.993Z,3.40
2023-12-15T01:05:45.438Z,3.40
2023-12-15T01:08:23.868Z,3.30
2023-12-15T01:11:11.447Z,3.30
2023-12-15T01:13:44.413Z,3.30
2023-12-15T01:16:35.468Z,3.30
2023-12-15T01:19:24.691Z,3.30
2023-12-15T01:26:00.841Z,3.20
2023-12-15T01:28:37.091Z,3.30
2023-12-15T01:31:17.766Z,3.20
2023-12-15T01:33:50.889Z,3.20
2023-12-15T01:40:00.589Z,3.20
2023-12-15T01:42:28.923Z,3.20
2023-12-15T01:45:01.624Z,3.20
2023-12-15T01:47:48.960Z,3.20
2023-12-15T01:50:17.895Z,3.20
2023-12-15T01:52:46.367Z,3.20
2023-12-15T01:55:16.188Z,3.20
2023-12-15T01:57:45.809Z,3.20
2023-12-15T02:00:15.033Z,3.20
2023-12-15T02:02:43.365Z,3.20
2023-12-15T02:05:12.848Z,3.20
2023-12-15T02:07:42.365Z,3.20
2023-12-15T02:10:11.103Z,3.20
2023-12-15T02:12:41.486Z,3.20
2023-12-15T02:15:11.557Z,3.20
2023-12-15T02:17:40.723Z,3.20
2023-12-15T02:20:10.267Z,3.10
2023-12-15T02:22:40.102Z,3.20
2023-12-15T02:25:08.941Z,3.10
2023-12-15T02:27:37.453Z,3.10
2023-12-15T02:30:06.832Z,3.10
2023-12-15T02:32:35.244Z,3.10
2023-12-15T02:35:03.617Z,3.10
2023-12-15T02:37:32.211Z,3.10
2023-12-15T02:40:01.895Z,3.10
2023-12-15T02:42:30.121Z,3.10
2023-12-15T02:44:58.381Z,3.00
2023-12-15T02:47:26.772Z,3.00
2023-12-15T02:49:55.706Z,3.00
2023-12-15T02:52:24.037Z,3.00
2023-12-15T02:54:52.404Z,3.00
2023-12-15T02:57:22.116Z,2.90
2023-12-15T02:59:50.458Z,2.90
2023-12-15T03:02:18.786Z,2.90
2023-12-15T03:04:47.081Z,2.90
2023-12-15T03:07:15.437Z,2.90
2023-12-15T03:09:43.646Z,2.80
2023-12-15T03:12:11.908Z,2.90
2023-12-15T03:14:41.559Z,2.80
2023-12-15T03:17:09.956Z,2.80
2023-12-15T03:19:41.099Z,2.80
2023-12-15T03:22:09.407Z,2.80
2023-12-15T03:24:37.643Z,2.80
2023-12-15T03:27:06.455Z,2.80
2023-12-15T03:29:34.801Z,2.70
2023-12-15T03:32:04.761Z,2.70
2023-12-15T03:34:33.875Z,2.70
2023-12-15T03:37:02.192Z,2.70
2023-12-15T03:39:30.472Z,2.70
2023-12-15T03:41:58.841Z,2.70
2023-12-15T03:44:27.275Z,2.70
2023-12-15T03:46:55.562Z,2.70
2023-12-15T03:49:25.246Z,2.70
2023-12-15T03:51:53.611Z,2.70
2023-12-15T03:54:22.013Z,2.70
2023-12-15T03:56:57.083Z,2.60
2023-12-15T03:59:25.444Z,2.60
2023-12-15T04:01:54.036Z,2.70
2023-12-15T04:04:22.680Z,2.60
2023-12-15T04:06:52.360Z,2.60
2023-12-15T04:09:20.614Z,2.60
2023-12-15T04:11:48.970Z,2.50
2023-12-15T04:14:18.350Z,2.60
2023-12-15T04:16:46.603Z,2.60
2023-12-15T04:19:15.090Z,2.50
2023-12-15T04:21:43.485Z,2.50
2023-12-15T04:24:13.154Z,2.50
2023-12-15T04:26:41.450Z,2.50
2023-12-15T04:29:09.582Z,2.60
2023-12-15T04:31:37.819Z,2.60
2023-12-15T04:34:06.038Z,2.50
2023-12-15T04:36:34.863Z,2.50
2023-12-15T04:39:04.019Z,2.50
2023-12-15T04:41:33.645Z,2.50
2023-12-15T04:44:01.819Z,2.40
2023-12-15T04:46:31.208Z,2.40
2023-12-15T04:49:01.784Z,2.40
2023-12-15T04:51:30.413Z,2.40
2023-12-15T04:53:59.658Z,2.40
2023-12-15T04:56:26.892Z,2.30
2023-12-15T04:58:56.528Z,2.40
2023-12-15T05:01:26.589Z,2.40
2023-12-15T05:03:54.948Z,2.40
2023-12-15T05:06:24.643Z,2.40
2023-12-15T05:08:53.488Z,2.40
2023-12-15T05:11:22.501Z,2.40
2023-12-15T05:13:50.790Z,2.40
2023-12-15T05:16:34.392Z,2.40
2023-12-15T05:19:02.866Z,2.40
2023-12-15T05:21:31.130Z,2.40
2023-12-15T05:24:00.867Z,2.40
2023-12-15T05:26:29.141Z,2.40
2023-12-15T05:28:59.734Z,2.40
2023-12-15T05:31:29.667Z,2.40
2023-12-15T05:33:57.940Z,2.40
2023-12-15T05:36:26.227Z,2.40
2023-12-15T05:38:55.220Z,2.40
2023-12-15T05:41:23.762Z,2.40
2023-12-15T05:43:51.975Z,2.40
2023-12-15T05:46:21.184Z,2.40
2023-12-15T05:48:51.195Z,2.40
2023-12-15T05:51:19.490Z,2.40
2023-12-15T05:53:55.208Z,2.40
2023-12-15T05:56:43.713Z,2.40
2023-12-15T05:59:16.594Z,2.40
2023-12-15T06:01:52.261Z,2.40
2023-12-15T06:07:25.640Z,2.30
2023-12-15T06:09:53.824Z,2.30
2023-12-15T06:12:26.147Z,2.30
2023-12-15T06:14:55.235Z,2.30
2023-12-15T06:17:23.375Z,2.30
2023-12-15T06:19:59.102Z,2.30
2023-12-15T06:22:27.289Z,2.30
2023-12-15T06:24:55.542Z,2.30
2023-12-15T06:27:23.752Z,2.40
2023-12-15T06:29:51.915Z,2.30
2023-12-15T06:32:20.062Z,2.30
2023-12-15T06:34:48.315Z,2.30
2023-12-15T06:37:17.960Z,2.30
2023-12-15T06:39:46.714Z,2.30
2023-12-15T06:42:14.966Z,2.30
2023-12-15T06:44:43.159Z,2.20
2023-12-15T06:47:11.376Z,2.20
2023-12-15T06:49:39.595Z,2.20
2023-12-15T06:52:08.996Z,2.20
2023-12-15T06:54:41.119Z,2.20
2023-12-15T06:57:09.714Z,2.20
2023-12-15T06:59:37.924Z,2.20
2023-12-15T07:02:06.398Z,2.20
2023-12-15T07:04:34.687Z,2.20
2023-12-15T07:07:03.163Z,2.20
2023-12-15T07:09:31.500Z,2.20
2023-12-15T07:12:02.558Z,2.20
2023-12-15T07:14:30.860Z,2.20
2023-12-15T07:16:59.171Z,2.20
2023-12-15T07:19:27.501Z,2.20
2023-12-15T07:21:55.871Z,2.20
2023-12-15T07:24:24.038Z,2.20
2023-12-15T07:26:52.282Z,2.20
2023-12-15T07:29:23.344Z,2.20
2023-12-15T07:31:51.837Z,2.20
2023-12-15T07:34:20.170Z,2.20
2023-12-15T07:36:48.479Z,2.20
2023-12-15T07:39:22.282Z,2.20
2023-12-15T07:41:50.443Z,2.20
2023-12-15T07:44:19.241Z,2.20
2023-12-15T07:46:48.833Z,2.30
2023-12-15T07:49:17.062Z,2.20
2023-12-15T07:51:45.158Z,2.30
2023-12-15T07:54:13.438Z,2.30
2023-12-15T07:56:41.688Z,2.30
2023-12-15T07:59:11.442Z,2.30
2023-12-15T08:01:39.645Z,2.30
2023-12-15T08:04:11.620Z,2.30
2023-12-15T08:06:39.869Z,2.30
2023-12-15T08:09:08.032Z,2.30
2023-12-15T08:11:36.284Z,2.30
2023-12-15T08:14:04.642Z,2.30
2023-12-15T08:16:33.165Z,2.30
2023-12-15T08:19:04.796Z,2.30
2023-12-15T08:21:34.500Z,2.40
2023-12-15T08:24:02.594Z,2.40
2023-12-15T08:26:31.454Z,2.40
2023-12-15T08:28:59.747Z,2.30
2023-12-15T08:31:28.091Z,2.30
2023-12-15T08:33:57.573Z,2.40
2023-12-15T08:36:25.732Z,2.40
2023-12-15T08:38:55.531Z,2.40
2023-12-15T08:41:23.731Z,2.50
2023-12-15T08:43:51.828Z,2.50
2023-12-15T08:46:20.011Z,2.50
2023-12-15T08:48:48.294Z,2.50
2023-12-15T08:51:16.540Z,2.50
2023-12-15T08:53:44.751Z,2.50
2023-12-15T08:56:14.332Z,2.50
2023-12-15T08:58:42.310Z,2.60
2023-12-15T09:01:10.605Z,2.60
2023-12-15T09:03:38.966Z,2.60
2023-12-15T09:06:25.460Z,2.60
2023-12-15T09:08:57.174Z,2.50
2023-12-15T09:11:27.070Z,2.60
2023-12-15T09:13:55.398Z,2.60
2023-12-15T09:16:23.657Z,2.60
2023-12-15T09:18:51.926Z,2.70
2023-12-15T09:21:20.224Z,2.70
2023-12-15T09:23:49.293Z,2.70
2023-12-15T09:26:17.667Z,2.80
2023-12-15T09:28:47.381Z,2.80
2023-12-15T09:31:15.504Z,2.80
2023-12-15T09:33:43.843Z,2.80
2023-12-15T09:36:12.358Z,2.80
2023-12-15T09:38:40.568Z,2.80
2023-12-15T09:41:10.152Z,2.70
2023-12-15T09:43:38.286Z,2.80
2023-12-15T09:46:09.460Z,2.80
2023-12-15T09:48:38.534Z,2.80
2023-12-15T09:51:11.207Z,2.80
2023-12-15T09:53:40.629Z,2.80
2023-12-15T09:56:09.905Z,2.70
2023-12-15T09:58:39.085Z,2.80
2023-12-15T10:01:09.262Z,2.70
2023-12-15T10:03:37.591Z,2.80
2023-12-15T10:06:07.229Z,2.80
2023-12-15T10:08:53.950Z,2.80
2023-12-15T10:11:31.151Z,2.80
2023-12-15T10:13:59.593Z,2.80
2023-12-15T10:16:30.747Z,2.80
2023-12-15T10:18:59.212Z,2.80
2023-12-15T10:21:28.550Z,2.80
2023-12-15T10:23:57.134Z,2.90
2023-12-15T10:26:25.358Z,2.80
2023-12-15T10:28:57.465Z,2.80
2023-12-15T10:31:28.390Z,2.80
2023-12-15T10:33:59.374Z,2.90
2023-12-15T10:36:28.754Z,2.80
2023-12-15T10:38:57.098Z,2.80
2023-12-15T10:41:25.550Z,2.80
2023-12-15T10:43:54.763Z,2.90
2023-12-15T10:46:24.380Z,2.90
2023-12-15T10:48:54.276Z,3.00
2023-12-15T10:51:25.971Z,3.00
2023-12-15T10:53:54.985Z,3.10
2023-12-15T10:56:23.873Z,3.10
2023-12-15T10:58:52.308Z,3.20
2023-12-15T11:01:20.990Z,3.50
2023-12-15T11:03:49.197Z,4.20
2023-12-15T11:06:29.387Z,5.70
2023-12-15T11:09:02.307Z,5.80
2023-12-15T11:11:32.065Z,5.90
2023-12-15T11:14:05.568Z,5.40
2023-12-15T11:16:35.564Z,5.00
2023-12-15T11:19:04.378Z,4.70
2023-12-15T11:21:35.520Z,4.40
2023-12-15T11:24:05.980Z,4.30
2023-12-15T11:26:36.395Z,4.20
2023-12-15T11:29:04.823Z,4.20
2023-12-15T11:31:35.077Z,4.10
2023-12-15T11:34:04.405Z,4.20
2023-12-15T11:36:42.939Z,4.20
2023-12-15T11:39:13.978Z,4.10
2023-12-15T11:41:43.780Z,4.00
2023-12-15T11:44:12.092Z,3.90
2023-12-15T11:46:40.425Z,3.80
2023-12-15T11:49:09.804Z,3.70
2023-12-15T11:51:39.658Z,3.60
2023-12-15T11:54:08.570Z,4.00
2023-12-15T11:56:36.846Z,4.40
2023-12-15T11:59:05.194Z,7.00
2023-12-15T12:01:37.364Z,8.60
2023-12-15T12:04:06.350Z,10.20
2023-12-15T12:06:35.023Z,9.70
2023-12-15T12:09:05.101Z,8.60
2023-12-15T12:11:33.198Z,7.70
2023-12-15T12:14:03.509Z,7.40
2023-12-15T12:16:34.200Z,7.10
2023-12-15T12:19:03.475Z,6.80
2023-12-15T12:21:32.975Z,6.90
2023-12-15T12:24:02.188Z,6.90
2023-12-15T12:26:32.037Z,7.00
2023-12-15T12:29:03.080Z,6.90
2023-12-15T12:31:31.790Z,6.70
2023-12-15T12:34:00.035Z,6.30
2023-12-15T12:36:29.858Z,6.10
2023-12-15T12:38:58.298Z,6.00
2023-12-15T12:41:26.899Z,5.90
2023-12-15T12:43:56.611Z,6.10
2023-12-15T12:46:24.890Z,6.00
2023-12-15T12:48:53.218Z,5.90
2023-12-15T12:51:21.926Z,5.90
2023-12-15T12:53:50.274Z,5.70
2023-12-15T12:56:19.033Z,5.40
2023-12-15T12:58:47.561Z,5.30
2023-12-15T13:01:17.375Z,5.10
2023-12-15T13:03:46.725Z,4.90
2023-12-15T13:06:14.864Z,4.60
2023-12-15T13:08:43.065Z,4.50
2023-12-15T13:11:14.899Z,4.30
2023-12-15T13:13:43.125Z,4.20
2023-12-15T13:16:12.093Z,4.10
2023-12-15T13:18:42.582Z,4.10
2023-12-15T13:21:11.522Z,4.00
2023-12-15T13:23:39.839Z,3.90
2023-12-15T13:26:09.958Z,3.90
2023-12-15T13:28:40.384Z,3.80
2023-12-15T13:31:08.689Z,3.70
2023-12-15T13:33:37.721Z,3.60
2023-12-15T13:36:13.821Z,3.50
2023-12-15T13:38:45.067Z,3.50
2023-12-15T13:41:13.893Z,3.50
2023-12-15T13:43:43.820Z,3.70
2023-12-15T13:46:12.351Z,3.80
2023-12-15T13:48:41.079Z,3.80
2023-12-15T13:51:11.285Z,3.90
2023-12-15T13:53:39.816Z,4.00
2023-12-15T13:56:09.012Z,3.90
2023-12-15T13:58:37.300Z,3.80
2023-12-15T14:01:06.851Z,3.70
2023-12-15T14:03:35.053Z,3.60
2023-12-15T14:06:05.389Z,3.60
2023-12-15T14:08:35.512Z,3.60
2023-12-15T14:11:05.660Z,3.60
2023-12-15T14:13:34.201Z,3.60
2023-12-15T14:16:08.625Z,3.60
2023-12-15T14:18:39.539Z,3.80
2023-12-15T14:21:08.481Z,3.80
2023-12-15T14:23:38.411Z,3.70
2023-12-15T14:26:07.092Z,3.50
2023-12-15T14:28:36.073Z,3.40
2023-12-15T14:31:04.632Z,3.30
2023-12-15T14:33:33.286Z,3.20
2023-12-15T14:36:02.871Z,3.10
2023-12-15T14:38:31.346Z,3.00
2023-12-15T14:41:04.121Z,2.90
2023-12-15T14:43:33.032Z,2.80
2023-12-15T14:46:01.297Z,2.70
2023-12-15T14:48:30.086Z,2.70
2023-12-15T14:51:00.794Z,2.60
2023-12-15T14:53:29.219Z,2.60
2023-12-15T14:55:57.974Z,2.50
2023-12-15T14:58:27.790Z,2.50
2023-12-15T15:00:56.479Z,2.50
2023-12-15T15:03:25.145Z,2.40
2023-12-15T15:05:55.197Z,2.40
2023-12-15T15:08:23.677Z,2.30
2023-12-15T15:10:52.068Z,2.20
2023-12-15T15:13:22.576Z,2.20
2023-12-15T15:15:53.773Z,2.10
2023-12-15T15:18:23.110Z,2.10
2023-12-15T15:20:51.841Z,2.00
2023-12-15T15:23:20.189Z,2.10
2023-12-15T15:25:48.548Z,2.00
2023-12-15T15:28:16.866Z,2.10
2023-12-15T15:30:45.686Z,2.10
2023-12-15T15:36:03.962Z,2.10
2023-12-15T15:38:32.640Z,2.10
2023-12-15T15:41:01.646Z,2.00
2023-12-15T15:43:29.908Z,2.10
2023-12-15T15:45:58.316Z,2.00
2023-12-15T15:48:28.146Z,2.10
2023-12-15T15:50:56.697Z,2.10
2023-12-15T15:53:26.503Z,2.10
2023-12-15T15:55:54.780Z,2.10
2023-12-15T15:58:24.294Z,2.10
2023-12-15T16:00:53.141Z,2.10
2023-12-15T16:03:21.686Z,2.20
2023-12-15T16:05:51.548Z,2.20
2023-12-15T16:08:19.870Z,2.20
2023-12-15T16:10:48.173Z,2.20
2023-12-15T16:13:16.593Z,2.20
2023-12-15T16:15:45.186Z,2.10
2023-12-15T16:18:13.754Z,2.20
2023-12-15T16:20:42.184Z,2.20
2023-12-15T16:23:12.003Z,2.20
2023-12-15T16:25:40.259Z,2.20
2023-12-15T16:28:09.752Z,2.20
2023-12-15T16:30:37.895Z,2.20
2023-12-15T16:33:06.407Z,2.20
2023-12-15T16:35:34.843Z,2.20
2023-12-15T16:38:03.576Z,2.20
2023-12-15T16:40:33.259Z,2.20
2023-12-15T16:43:01.884Z,2.20
2023-12-15T16:45:30.135Z,2.20
2023-12-15T16:47:58.372Z,2.20
2023-12-15T16:50:26.685Z,2.20
2023-12-15T16:52:54.975Z,2.20
2023-12-15T16:55:23.471Z,2.20
2023-12-15T17:00:24.841Z,2.20
2023-12-15T17:02:53.179Z,2.20
2023-12-15T17:05:21.500Z,2.20
2023-12-15T17:07:49.842Z,2.20
2023-12-15T17:10:18.460Z,2.20
2023-12-15T17:12:46.736Z,2.20
2023-12-15T17:15:16.839Z,2.20
2023-12-15T17:17:54.378Z,2.20
2023-12-15T17:20:27.190Z,2.20
2023-12-15T17:22:56.852Z,2.10
2023-12-15T17:25:25.574Z,2.20
2023-12-15T17:27:53.911Z,2.20
2023-12-15T17:30:24.242Z,2.20
2023-12-15T17:32:52.604Z,2.20
2023-12-15T17:35:20.850Z,2.20
2023-12-15T17:37:49.329Z,2.20
2023-12-15T17:40:18.339Z,2.10
2023-12-15T17:42:46.577Z,2.10
2023-12-15T17:45:14.902Z,2.10
2023-12-15T17:47:44.862Z,2.00
2023-12-15T17:50:15.271Z,2.00
2023-12-15T17:52:44.431Z,2.00
2023-12-15T17:55:13.658Z,2.00
2023-12-15T17:57:42.529Z,2.00
2023-12-15T18:00:11.944Z,2.00
2023-12-15T18:02:40.122Z,2.00
2023-12-15T18:05:10.223Z,2.00
2023-12-15T18:07:38.887Z,2.00
2023-12-15T18:10:08.675Z,1.90
2023-12-15T18:12:37.637Z,2.00
2023-12-15T18:15:07.618Z,1.90
2023-12-15T18:17:36.172Z,2.00
2023-12-15T18:20:05.025Z,2.00
2023-12-15T18:22:35.232Z,2.00
2023-12-15T18:25:03.755Z,2.00
2023-12-15T18:27:32.028Z,2.00
2023-12-15T18:30:00.825Z,2.00
2023-12-15T18:32:29.096Z,2.00
2023-12-15T18:34:57.436Z,2.00
2023-12-15T18:37:25.631Z,2.00
2023-12-15T18:39:55.332Z,2.00
2023-12-15T18:42:24.396Z,2.00
2023-12-15T18:44:52.936Z,2.00
2023-12-15T18:47:22.627Z,2.00
2023-12-15T18:49:50.940Z,2.00
2023-12-15T18:52:20.281Z,2.00
2023-12-15T18:54:49.327Z,2.00
2023-12-15T18:57:21.812Z,2.00
2023-12-15T18:59:50.046Z,2.00
2023-12-15T19:02:19.476Z,2.00
2023-12-15T19:04:51.937Z,2.10
2023-12-15T19:07:22.272Z,2.10
2023-12-15T19:09:50.558Z,2.00
2023-12-15T19:12:20.204Z,2.10
2023-12-15T19:14:48.470Z,2.10
2023-12-15T19:17:16.743Z,2.10
2023-12-15T19:19:46.368Z,2.10
2023-12-15T19:22:14.795Z,2.20
2023-12-15T19:24:43.042Z,2.20
2023-12-15T19:27:11.569Z,2.20
2023-12-15T19:29:41.585Z,2.20
2023-12-15T19:32:09.812Z,2.20
2023-12-15T19:34:38.309Z,2.30
2023-12-15T19:37:07.213Z,2.20
2023-12-15T19:39:36.372Z,2.30
2023-12-15T19:42:05.001Z,2.30
2023-12-15T19:44:33.288Z,2.30
2023-12-15T19:47:02.935Z,2.30
2023-12-15T19:49:31.092Z,2.30
2023-12-15T19:51:59.752Z,2.30
2023-12-15T19:54:28.023Z,2.30
2023-12-15T19:56:56.240Z,2.30
2023-12-15T19:59:26.452Z,2.30
2023-12-15T20:01:57.278Z,2.40
2023-12-15T20:04:27.308Z,2.40
2023-12-15T20:06:55.622Z,2.40
2023-12-15T20:09:24.224Z,2.40
2023-12-15T20:11:52.498Z,2.40
2023-12-15T20:14:20.938Z,2.50
2023-12-15T20:16:53.404Z,2.50
2023-12-15T20:19:22.277Z,2.50
2023-12-15T20:21:52.350Z,2.50
2023-12-15T20:24:20.662Z,2.50
2023-12-15T20:26:48.968Z,2.50
2023-12-15T20:29:17.253Z,2.50
2023-12-15T20:31:46.215Z,2.50
2023-12-15T20:34:16.595Z,2.50
2023-12-15T20:36:45.123Z,2.60
2023-12-15T20:39:16.589Z,2.60
2023-12-15T20:41:45.376Z,2.60
2023-12-15T20:44:15.916Z,2.70
2023-12-15T20:46:46.222Z,2.70
2023-12-15T20:49:14.759Z,2.60
2023-12-15T20:51:43.289Z,2.60
2023-12-15T20:54:11.851Z,2.60
2023-12-15T20:56:43.024Z,2.60
2023-12-15T20:59:12.248Z,2.70
2023-12-15T21:01:40.666Z,2.70
2023-12-15T21:04:09.219Z,2.60
2023-12-15T21:06:37.480Z,2.60
2023-12-15T21:09:06.402Z,2.60
2023-12-15T21:11:36.442Z,2.70
2023-12-15T21:14:06.195Z,2.70
2023-12-15T21:16:35.452Z,2.70
2023-12-15T21:19:03.846Z,2.70
2023-12-15T21:21:35.391Z,2.70
2023-12-15T21:24:04.492Z,2.70
2023-12-15T21:26:33.150Z,2.80
2023-12-15T21:29:01.446Z,2.80
2023-12-15T21:31:32.285Z,2.70
2023-12-15T21:34:00.769Z,2.80
2023-12-15T21:36:29.139Z,2.70
2023-12-15T21:38:57.383Z,2.70
2023-12-15T21:41:25.969Z,2.70
2023-12-15T21:43:56.264Z,2.70
2023-12-15T21:46:24.584Z,2.80
2023-12-15T21:48:56.498Z,2.70
2023-12-15T21:51:28.056Z,2.70
2023-12-15T21:53:56.596Z,2.80
2023-12-15T21:56:25.134Z,2.80
2023-12-15T21:58:55.124Z,2.70
2023-12-15T22:01:24.109Z,2.80
2023-12-15T22:03:55.460Z,2.80
2023-12-15T22:06:24.289Z,2.80
2023-12-15T22:08:53.036Z,2.80
2023-12-15T22:11:21.323Z,2.80
2023-12-15T22:13:49.593Z,2.70
2023-12-15T22:16:18.252Z,2.70
2023-12-15T22:18:46.721Z,2.70
2023-12-15T22:21:16.536Z,2.70
2023-12-15T22:23:45.228Z,2.70
2023-12-15T22:26:14.663Z,2.70
2023-12-15T22:28:43.235Z,2.70
2023-12-15T22:31:11.804Z,2.70
2023-12-15T22:33:40.477Z,2.70
2023-12-15T22:36:09.619Z,2.70
2023-12-15T22:38:40.022Z,2.70
2023-12-15T22:41:13.786Z,2.60
2023-12-15T22:43:43.721Z,2.60
2023-12-15T22:46:12.094Z,2.60
2023-12-15T22:48:43.997Z,2.60
2023-12-15T22:51:12.527Z,2.60
2023-12-15T22:53:41.355Z,2.50
2023-12-15T22:56:10.777Z,2.50
2023-12-15T22:58:38.871Z,2.50
2023-12-15T23:01:07.679Z,2.50
2023-12-15T23:03:36.001Z,2.50
2023-12-15T23:06:05.479Z,2.60
2023-12-15T23:08:33.695Z,2.50
2023-12-15T23:11:03.393Z,2.60
2023-12-15T23:13:32.355Z,2.50
2023-12-15T23:16:01.727Z,2.50
2023-12-15T23:18:31.209Z,2.50
2023-12-15T23:21:06.685Z,2.50
2023-12-15T23:23:37.928Z,2.60
2023-12-15T23:26:10.238Z,2.50
2023-12-15T23:28:38.644Z,2.50
2023-12-15T23:31:08.231Z,2.50
2023-12-15T23:33:36.580Z,2.50
2023-12-15T23:36:11.778Z,2.50
2023-12-15T23:38:40.241Z,2.50
2023-12-15T23:41:10.577Z,2.50
2023-12-15T23:43:38.870Z,2.50
2023-12-15T23:46:07.258Z,2.50
2023-12-15T23:48:36.083Z,2.50
2023-12-15T23:51:04.679Z,2.50
2023-12-15T23:53:32.971Z,2.60
2023-12-15T23:56:01.206Z,2.60
2023-12-15T23:58:31.709Z,2.60
